createdAt,value
2018-11-06T00:01:26.449Z,24.37
2018-11-06T00:06:23.217Z,25.87
2018-11-06T00:11:19.965Z,27.13
2018-11-06T00:16:16.701Z,23.13
2018-11-06T00:21:13.380Z,25.97
2018-11-06T00:26:10.028Z,24.97
2018-11-06T00:31:06.734Z,28.73
2018-11-06T00:36:03.650Z,28.93
2018-11-06T00:41:00.332Z,26.43
2018-11-06T00:45:56.993Z,34.57
2018-11-06T00:50:53.697Z,29.47
2018-11-06T00:55:50.408Z,32.10
2018-11-06T01:00:47.143Z,32.03
2018-11-06T01:05:43.817Z,28.40
2018-11-06T01:10:40.587Z,29.97
2018-11-06T01:15:37.349Z,34.53
2018-11-06T01:20:34.139Z,33.83
2018-11-06T01:25:30.863Z,32.10
2018-11-06T01:30:27.861Z,31.53
2018-11-06T01:35:24.626Z,31.67
2018-11-06T01:40:21.304Z,28.83
2018-11-06T01:45:18.161Z,33.33
2018-11-06T01:50:16.143Z,27.47
2018-11-06T01:55:12.926Z,29.67
2018-11-06T02:00:12.754Z,31.37
2018-11-06T02:05:11.346Z,34.00
2018-11-06T02:10:09.210Z,31.80
2018-11-06T02:15:06.038Z,30.03
2018-11-06T02:20:02.732Z,29.33
2018-11-06T02:24:59.428Z,31.70
2018-11-06T02:29:56.259Z,26.23
2018-11-06T02:34:52.966Z,29.83
2018-11-06T02:39:49.633Z,36.07
2018-11-06T02:44:46.372Z,31.20
2018-11-06T02:49:43.096Z,30.33
2018-11-06T02:54:39.826Z,33.27
2018-11-06T02:59:36.565Z,33.63
2018-11-06T03:04:33.239Z,30.47
2018-11-06T03:09:30.042Z,34.77
2018-11-06T03:14:26.758Z,30.60
2018-11-06T03:19:23.542Z,31.23
2018-11-06T03:24:20.271Z,29.93
2018-11-06T03:29:16.971Z,29.47
2018-11-06T03:34:13.807Z,29.27
2018-11-06T03:39:10.706Z,30.83
2018-11-06T03:44:07.409Z,29.53
2018-11-06T03:49:04.180Z,27.80
2018-11-06T03:54:00.933Z,30.57
2018-11-06T03:58:57.883Z,34.50
2018-11-06T04:03:54.668Z,31.93
2018-11-06T04:08:51.332Z,32.70
2018-11-06T04:13:48.057Z,30.10
2018-11-06T04:18:44.751Z,29.17
2018-11-06T04:23:41.519Z,26.77
2018-11-06T04:28:38.227Z,27.47
2018-11-06T04:33:35.035Z,26.43
2018-11-06T04:38:31.758Z,31.87
2018-11-06T04:43:28.524Z,26.03
2018-11-06T04:48:25.312Z,26.67
2018-11-06T04:53:22.027Z,24.90
2018-11-06T04:58:18.761Z,29.00
2018-11-06T05:03:15.577Z,26.73
2018-11-06T05:08:12.508Z,27.87
2018-11-06T05:13:09.274Z,32.43
2018-11-06T05:18:06.020Z,33.87
2018-11-06T05:23:02.717Z,35.30
2018-11-06T05:27:59.446Z,32.57
2018-11-06T05:32:56.771Z,34.13
2018-11-06T05:37:53.367Z,32.80
2018-11-06T05:42:50.102Z,35.37
2018-11-06T05:47:46.778Z,41.07
2018-11-06T05:52:43.498Z,34.47
2018-11-06T05:57:40.245Z,32.53
2018-11-06T06:02:37.002Z,28.40
2018-11-06T06:07:33.891Z,34.93
2018-11-06T06:12:30.617Z,35.53
2018-11-06T06:17:27.342Z,38.50
2018-11-06T06:22:24.057Z,31.63
2018-11-06T06:27:20.817Z,36.27
2018-11-06T06:32:17.561Z,38.40
2018-11-06T06:37:14.283Z,30.37
2018-11-06T06:42:11.034Z,32.73
2018-11-06T06:47:07.811Z,37.70
2018-11-06T06:52:04.901Z,31.97
2018-11-06T06:57:01.659Z,35.27
2018-11-06T07:01:58.374Z,29.47
2018-11-06T07:06:55.128Z,37.77
2018-11-06T07:11:51.897Z,36.00
2018-11-06T07:16:48.570Z,35.80
2018-11-06T07:21:45.253Z,32.23
2018-11-06T07:26:42.241Z,34.50
2018-11-06T07:31:39.016Z,41.87
2018-11-06T07:36:35.782Z,38.13
2018-11-06T07:41:32.532Z,28.53
2018-11-06T07:46:29.332Z,31.10
2018-11-06T07:51:26.103Z,31.57
2018-11-06T07:56:22.819Z,30.83
2018-11-06T08:01:19.492Z,29.23
2018-11-06T08:06:16.253Z,31.73
2018-11-06T08:11:12.902Z,25.87
2018-11-06T08:16:09.606Z,28.63
2018-11-06T08:21:06.343Z,27.63
2018-11-06T08:26:03.131Z,23.33
2018-11-06T08:31:00.106Z,17.60
2018-11-06T08:35:56.761Z,19.80
2018-11-06T08:40:53.538Z,18.23
2018-11-06T08:45:50.274Z,16.37
2018-11-06T08:50:47.044Z,15.40
2018-11-06T08:55:43.806Z,13.78
2018-11-06T09:00:40.469Z,14.98
2018-11-06T09:05:37.212Z,14.80
2018-11-06T09:10:33.879Z,13.48
2018-11-06T09:15:30.624Z,13.15
2018-11-06T09:20:27.362Z,8.80
2018-11-06T09:25:24.185Z,12.23
2018-11-06T09:30:20.998Z,8.23
2018-11-06T09:35:17.748Z,7.62
2018-11-06T09:40:18.687Z,7.35
2018-11-06T09:45:15.668Z,6.33
2018-11-06T09:50:14.650Z,5.95
2018-11-06T09:55:11.735Z,6.28
2018-11-06T10:00:11.971Z,4.95
2018-11-06T10:05:09.390Z,5.25
2018-11-06T10:10:07.306Z,5.55
2018-11-06T10:15:04.908Z,5.83
2018-11-06T10:20:01.640Z,7.67
2018-11-06T10:24:58.344Z,4.97
2018-11-06T10:29:55.073Z,4.42
2018-11-06T10:34:51.830Z,7.65
2018-11-06T10:39:48.507Z,6.83
2018-11-06T10:44:45.217Z,5.55
2018-11-06T10:49:41.957Z,4.92
2018-11-06T10:54:38.688Z,5.28
2018-11-06T10:59:35.386Z,5.95
2018-11-06T11:04:32.210Z,4.15
2018-11-06T11:09:28.938Z,4.92
2018-11-06T11:14:25.678Z,4.20
2018-11-06T11:19:22.366Z,4.12
2018-11-06T11:24:19.105Z,4.92
2018-11-06T11:29:15.970Z,4.35
2018-11-06T11:34:12.786Z,6.35
2018-11-06T11:39:09.599Z,4.80
2018-11-06T11:44:06.879Z,5.85
2018-11-06T11:49:03.578Z,4.75
2018-11-06T11:54:00.247Z,5.20
2018-11-06T11:58:57.266Z,4.72
2018-11-06T12:03:53.987Z,4.85
2018-11-06T12:08:50.753Z,4.45
2018-11-06T12:13:47.520Z,5.20
2018-11-06T12:18:44.209Z,8.23
2018-11-06T12:23:41.068Z,7.25
2018-11-06T12:28:37.836Z,8.23
2018-11-06T12:33:34.561Z,9.13
2018-11-06T12:38:31.293Z,7.47
2018-11-06T12:43:28.120Z,7.30
2018-11-06T12:48:24.746Z,7.97
2018-11-06T12:53:21.462Z,5.65
2018-11-06T12:58:18.148Z,7.80
2018-11-06T13:03:15.137Z,7.55
2018-11-06T13:08:11.943Z,5.80
2018-11-06T13:13:08.601Z,5.25
2018-11-06T13:18:05.284Z,8.75
2018-11-06T13:23:02.087Z,5.70
2018-11-06T13:27:58.805Z,5.40
2018-11-06T13:32:55.582Z,7.67
2018-11-06T13:37:52.312Z,4.87
2018-11-06T13:42:49.175Z,7.95
2018-11-06T13:47:45.794Z,7.58
2018-11-06T13:52:42.520Z,5.20
2018-11-06T13:57:39.193Z,8.10
2018-11-06T14:02:35.863Z,6.23
2018-11-06T14:07:33.073Z,5.37
2018-11-06T14:12:29.813Z,4.13
2018-11-06T14:17:26.493Z,5.67
2018-11-06T14:22:23.206Z,5.10
2018-11-06T14:27:19.967Z,4.37
2018-11-06T14:32:16.819Z,7.60
2018-11-06T14:37:13.515Z,5.80
2018-11-06T14:42:10.290Z,5.73
2018-11-06T14:47:07.041Z,6.83
2018-11-06T14:52:04.045Z,8.17
2018-11-06T14:57:00.738Z,6.30
2018-11-06T15:01:57.504Z,5.80
2018-11-06T15:06:54.164Z,5.50
2018-11-06T15:11:50.838Z,7.77
2018-11-06T15:16:47.637Z,7.93
2018-11-06T15:21:44.389Z,8.77
2018-11-06T15:26:41.397Z,9.40
2018-11-06T15:31:38.163Z,9.20
2018-11-06T15:36:34.938Z,9.47
2018-11-06T15:41:31.803Z,9.83
2018-11-06T15:46:28.711Z,9.57
2018-11-06T15:51:25.481Z,8.97
2018-11-06T15:56:22.209Z,11.13
2018-11-06T16:01:19.041Z,12.37
2018-11-06T16:06:15.794Z,15.07
2018-11-06T16:11:12.517Z,13.33
2018-11-06T16:16:09.209Z,17.77
2018-11-06T16:21:06.301Z,14.20
2018-11-06T16:26:02.995Z,12.30
2018-11-06T16:30:59.820Z,15.90
2018-11-06T16:35:56.844Z,14.97
2018-11-06T16:40:53.582Z,13.40
2018-11-06T16:45:50.349Z,13.10
2018-11-06T16:50:47.090Z,13.90
2018-11-06T16:55:43.886Z,20.17
2018-11-06T17:00:40.647Z,17.90
2018-11-06T17:05:37.330Z,14.23
2018-11-06T17:10:34.012Z,16.57
2018-11-06T17:15:30.804Z,14.77
2018-11-06T17:20:27.589Z,13.37
2018-11-06T17:25:24.392Z,21.67
2018-11-06T17:30:21.104Z,16.53
2018-11-06T17:35:18.796Z,21.03
2018-11-06T17:40:17.633Z,13.50
2018-11-06T17:45:16.605Z,13.37
2018-11-06T17:50:14.303Z,18.60
2018-11-06T17:55:13.293Z,15.53
2018-11-06T18:00:11.647Z,17.57
2018-11-06T18:05:08.986Z,17.00
2018-11-06T18:10:06.330Z,21.47
2018-11-06T18:15:03.059Z,28.60
2018-11-06T18:19:59.819Z,28.47
2018-11-06T18:24:56.833Z,26.23
2018-11-06T18:29:53.533Z,20.77
2018-11-06T18:34:50.219Z,28.93
2018-11-06T18:39:46.983Z,19.03
2018-11-06T18:44:43.670Z,19.97
2018-11-06T18:49:40.520Z,17.57
2018-11-06T18:54:37.314Z,15.77
2018-11-06T18:59:34.043Z,15.23
2018-11-06T19:04:30.896Z,18.33
2018-11-06T19:09:27.578Z,18.47
2018-11-06T19:14:24.314Z,16.67
2018-11-06T19:19:21.108Z,16.87
2018-11-06T19:24:17.858Z,22.47
2018-11-06T19:29:14.576Z,19.00
2018-11-06T19:34:11.714Z,18.73
2018-11-06T19:39:09.433Z,17.20
2018-11-06T19:44:06.844Z,29.87
2018-11-06T19:49:03.645Z,17.93
2018-11-06T19:54:00.550Z,26.93
2018-11-06T19:58:57.461Z,26.03
2018-11-06T20:03:54.182Z,22.47
2018-11-06T20:08:50.956Z,27.67
2018-11-06T20:13:47.780Z,28.50
2018-11-06T20:18:44.504Z,37.40
2018-11-06T20:23:41.442Z,26.70
2018-11-06T20:28:38.317Z,25.07
2018-11-06T20:33:35.497Z,25.47
2018-11-06T20:38:32.082Z,25.57
2018-11-06T20:43:28.873Z,22.37
2018-11-06T20:48:25.777Z,23.77
2018-11-06T20:53:22.748Z,28.57
2018-11-06T20:58:19.536Z,23.93
2018-11-06T21:03:20.913Z,23.90
2018-11-06T21:08:17.666Z,27.37
2018-11-06T21:13:14.525Z,24.53
2018-11-06T21:18:11.473Z,23.80
2018-11-06T21:23:08.561Z,22.70
2018-11-06T21:28:05.578Z,30.33
2018-11-06T21:33:02.247Z,23.43
2018-11-06T21:37:58.975Z,24.83
2018-11-06T21:42:55.643Z,22.23
2018-11-06T21:47:52.372Z,25.33
2018-11-06T21:52:49.178Z,24.23
2018-11-06T21:57:45.885Z,30.93
2018-11-06T22:02:42.767Z,29.23
2018-11-06T22:07:39.976Z,21.63
2018-11-06T22:12:36.871Z,22.33
2018-11-06T22:17:33.606Z,24.43
2018-11-06T22:22:30.410Z,22.87
2018-11-06T22:27:27.317Z,20.37
2018-11-06T22:32:23.977Z,22.40
2018-11-06T22:37:20.742Z,22.20
2018-11-06T22:42:17.454Z,20.80
2018-11-06T22:47:14.250Z,22.77
2018-11-06T22:52:11.061Z,22.97
2018-11-06T22:57:07.794Z,25.13
2018-11-06T23:02:04.526Z,25.43
2018-11-06T23:07:01.373Z,21.13
2018-11-06T23:11:58.022Z,23.80
2018-11-06T23:16:54.701Z,22.27
2018-11-06T23:21:51.444Z,21.97
2018-11-06T23:26:48.176Z,22.73
2018-11-06T23:31:44.967Z,18.77
2018-11-06T23:36:41.857Z,20.40
2018-11-06T23:41:38.590Z,23.47
2018-11-06T23:46:35.299Z,18.90
2018-11-06T23:51:32.029Z,23.70
2018-11-06T23:56:28.799Z,17.53
